sensor_id;sensor_type;location;lat;lon;timestamp;temperature;humidity
27409;DHT22;20413;50.782;7.152;2022-12-10T00:01:19;0.10;99.90
27409;DHT22;20413;50.782;7.152;2022-12-10T00:03:45;0.20;99.90
27409;DHT22;20413;50.782;7.152;2022-12-10T00:06:13;0.20;99.90
27409;DHT22;20413;50.782;7.152;2022-12-10T00:08:39;0.30;99.90
27409;DHT22;20413;50.782;7.152;2022-12-10T00:11:07;0.30;99.90
27409;DHT22;20413;50.782;7.152;2022-12-10T00:13:34;0.40;99.90
27409;DHT22;20413;50.782;7.152;2022-12-10T00:16:03;0.40;99.90
27409;DHT22;20413;50.782;7.152;2022-12-10T00:18:29;0.30;99.90
27409;DHT22;20413;50.782;7.152;2022-12-10T00:20:55;0.40;99.90
27409;DHT22;20413;50.782;7.152;2022-12-10T00:23:21;0.40;99.90
27409;DHT22;20413;50.782;7.152;2022-12-10T00:25:47;0.30;99.90
27409;DHT22;20413;50.782;7.152;2022-12-10T00:28:12;0.40;99.90
27409;DHT22;20413;50.782;7.152;2022-12-10T00:30:38;0.40;99.90
27409;DHT22;20413;50.782;7.152;2022-12-10T00:33:04;0.50;99.90
27409;DHT22;20413;50.782;7.152;2022-12-10T00:35:29;0.50;99.90
27409;DHT22;20413;50.782;7.152;2022-12-10T00:37:55;0.40;99.90
27409;DHT22;20413;50.782;7.152;2022-12-10T00:40:22;0.40;99.90
27409;DHT22;20413;50.782;7.152;2022-12-10T00:42:48;0.50;99.90
27409;DHT22;20413;50.782;7.152;2022-12-10T00:45:13;0.40;99.90
27409;DHT22;20413;50.782;7.152;2022-12-10T00:47:39;0.40;99.90
27409;DHT22;20413;50.782;7.152;2022-12-10T00:50:04;0.40;99.90
27409;DHT22;20413;50.782;7.152;2022-12-10T00:52:30;0.40;99.90
27409;DHT22;20413;50.782;7.152;2022-12-10T00:54:56;0.40;99.90
27409;DHT22;20413;50.782;7.152;2022-12-10T00:57:21;0.40;99.90
27409;DHT22;20413;50.782;7.152;2022-12-10T00:59:47;0.40;99.90
27409;DHT22;20413;50.782;7.152;2022-12-10T01:02:12;0.40;99.90
27409;DHT22;20413;50.782;7.152;2022-12-10T01:04:38;0.40;99.90
27409;DHT22;20413;50.782;7.152;2022-12-10T01:07:03;0.40;99.90
27409;DHT22;20413;50.782;7.152;2022-12-10T01:09:30;0.30;99.90
27409;DHT22;20413;50.782;7.152;2022-12-10T01:11:57;0.30;99.90
27409;DHT22;20413;50.782;7.152;2022-12-10T01:14:32;0.30;99.90
27409;DHT22;20413;50.782;7.152;2022-12-10T01:17:00;0.30;99.90
27409;DHT22;20413;50.782;7.152;2022-12-10T01:19:30;0.30;99.90
27409;DHT22;20413;50.782;7.152;2022-12-10T01:21:56;0.30;99.90
27409;DHT22;20413;50.782;7.152;2022-12-10T01:24:24;0.20;99.90
27409;DHT22;20413;50.782;7.152;2022-12-10T01:26:50;0.20;99.90
27409;DHT22;20413;50.782;7.152;2022-12-10T01:29:16;0.30;99.90
27409;DHT22;20413;50.782;7.152;2022-12-10T01:31:42;0.20;99.90
27409;DHT22;20413;50.782;7.152;2022-12-10T01:34:12;0.10;99.90
27409;DHT22;20413;50.782;7.152;2022-12-10T01:36:41;0.10;99.90
27409;DHT22;20413;50.782;7.152;2022-12-10T01:39:10;0.10;99.90
27409;DHT22;20413;50.782;7.152;2022-12-10T01:41:42;0.00;99.90
27409;DHT22;20413;50.782;7.152;2022-12-10T01:46:38;0.00;99.90
27409;DHT22;20413;50.782;7.152;2022-12-10T01:49:11;0.00;99.90
27409;DHT22;20413;50.782;7.152;2022-12-10T01:51:39;0.00;99.90
27409;DHT22;20413;50.782;7.152;2022-12-10T01:54:06;0.00;99.90
27409;DHT22;20413;50.782;7.152;2022-12-10T01:56:36;-0.10;99.90
27409;DHT22;20413;50.782;7.152;2022-12-10T01:59:02;-0.10;99.90
27409;DHT22;20413;50.782;7.152;2022-12-10T02:01:44;-0.20;99.90
27409;DHT22;20413;50.782;7.152;2022-12-10T02:15:49;-0.50;99.90
27409;DHT22;20413;50.782;7.152;2022-12-10T02:18:26;-0.50;99.90
27409;DHT22;20413;50.782;7.152;2022-12-10T02:20:57;-0.60;99.90
27409;DHT22;20413;50.782;7.152;2022-12-10T02:23:32;-0.60;99.90
27409;DHT22;20413;50.782;7.152;2022-12-10T02:28:48;-0.60;99.90
27409;DHT22;20413;50.782;7.152;2022-12-10T02:31:19;-0.50;99.90
27409;DHT22;20413;50.782;7.152;2022-12-10T02:33:51;-0.40;99.90
27409;DHT22;20413;50.782;7.152;2022-12-10T02:36:18;-0.40;99.90
27409;DHT22;20413;50.782;7.152;2022-12-10T02:38:47;-0.30;99.90
27409;DHT22;20413;50.782;7.152;2022-12-10T02:41:14;-0.20;99.90
27409;DHT22;20413;50.782;7.152;2022-12-10T02:43:43;-0.10;99.90
27409;DHT22;20413;50.782;7.152;2022-12-10T02:46:10;-0.10;99.90
27409;DHT22;20413;50.782;7.152;2022-12-10T02:48:36;0.00;99.90
27409;DHT22;20413;50.782;7.152;2022-12-10T02:51:02;0.00;99.90
27409;DHT22;20413;50.782;7.152;2022-12-10T02:53:27;0.00;99.90
27409;DHT22;20413;50.782;7.152;2022-12-10T02:56:10;0.10;99.90
27409;DHT22;20413;50.782;7.152;2022-12-10T03:03:55;0.00;99.90
27409;DHT22;20413;50.782;7.152;2022-12-10T03:06:32;0.00;99.90
27409;DHT22;20413;50.782;7.152;2022-12-10T03:09:21;0.00;99.90
27409;DHT22;20413;50.782;7.152;2022-12-10T03:11:48;0.00;99.90
27409;DHT22;20413;50.782;7.152;2022-12-10T03:14:20;0.00;99.90
27409;DHT22;20413;50.782;7.152;2022-12-10T03:16:54;-0.10;99.90
27409;DHT22;20413;50.782;7.152;2022-12-10T03:19:26;-0.10;99.90
27409;DHT22;20413;50.782;7.152;2022-12-10T03:21:54;-0.10;99.90
27409;DHT22;20413;50.782;7.152;2022-12-10T03:24:22;-0.10;99.90
27409;DHT22;20413;50.782;7.152;2022-12-10T03:26:50;0.00;99.90
27409;DHT22;20413;50.782;7.152;2022-12-10T03:29:21;0.00;99.90
27409;DHT22;20413;50.782;7.152;2022-12-10T03:31:48;0.10;99.90
27409;DHT22;20413;50.782;7.152;2022-12-10T03:34:15;0.10;99.90
27409;DHT22;20413;50.782;7.152;2022-12-10T03:36:41;0.10;99.90
27409;DHT22;20413;50.782;7.152;2022-12-10T03:39:07;0.10;99.90
27409;DHT22;20413;50.782;7.152;2022-12-10T03:41:33;0.10;99.90
27409;DHT22;20413;50.782;7.152;2022-12-10T03:43:59;0.20;99.90
27409;DHT22;20413;50.782;7.152;2022-12-10T03:46:28;0.20;99.90
27409;DHT22;20413;50.782;7.152;2022-12-10T03:48:54;0.20;99.90
27409;DHT22;20413;50.782;7.152;2022-12-10T03:51:20;0.20;99.90
27409;DHT22;20413;50.782;7.152;2022-12-10T03:53:46;0.10;99.90
27409;DHT22;20413;50.782;7.152;2022-12-10T03:56:14;0.20;99.90
27409;DHT22;20413;50.782;7.152;2022-12-10T03:58:39;0.20;99.90
27409;DHT22;20413;50.782;7.152;2022-12-10T04:01:05;0.10;99.90
27409;DHT22;20413;50.782;7.152;2022-12-10T04:03:35;0.20;99.90
27409;DHT22;20413;50.782;7.152;2022-12-10T04:06:06;0.30;99.90
27409;DHT22;20413;50.782;7.152;2022-12-10T04:08:32;0.30;99.90
27409;DHT22;20413;50.782;7.152;2022-12-10T04:11:05;0.30;99.90
27409;DHT22;20413;50.782;7.152;2022-12-10T04:13:35;0.30;99.90
27409;DHT22;20413;50.782;7.152;2022-12-10T04:16:21;0.40;99.90
27409;DHT22;20413;50.782;7.152;2022-12-10T04:21:22;0.40;99.90
27409;DHT22;20413;50.782;7.152;2022-12-10T04:24:08;0.40;99.90
27409;DHT22;20413;50.782;7.152;2022-12-10T04:26:53;0.40;99.90
27409;DHT22;20413;50.782;7.152;2022-12-10T04:29:20;0.40;99.90
27409;DHT22;20413;50.782;7.152;2022-12-10T04:31:45;0.40;99.90
27409;DHT22;20413;50.782;7.152;2022-12-10T04:34:11;0.40;99.90
27409;DHT22;20413;50.782;7.152;2022-12-10T04:36:36;0.40;99.90
27409;DHT22;20413;50.782;7.152;2022-12-10T04:39:03;0.50;99.90
27409;DHT22;20413;50.782;7.152;2022-12-10T04:41:28;0.50;99.90
27409;DHT22;20413;50.782;7.152;2022-12-10T04:43:54;0.50;99.90
27409;DHT22;20413;50.782;7.152;2022-12-10T04:46:20;0.50;99.90
27409;DHT22;20413;50.782;7.152;2022-12-10T04:48:45;0.50;99.90
27409;DHT22;20413;50.782;7.152;2022-12-10T04:51:11;0.60;99.90
27409;DHT22;20413;50.782;7.152;2022-12-10T04:53:37;0.60;99.90
27409;DHT22;20413;50.782;7.152;2022-12-10T04:56:02;0.60;99.90
27409;DHT22;20413;50.782;7.152;2022-12-10T04:58:30;0.60;99.90
27409;DHT22;20413;50.782;7.152;2022-12-10T05:01:04;0.60;99.90
27409;DHT22;20413;50.782;7.152;2022-12-10T05:03:30;0.60;99.90
27409;DHT22;20413;50.782;7.152;2022-12-10T05:05:56;0.60;99.90
27409;DHT22;20413;50.782;7.152;2022-12-10T05:08:25;0.60;99.90
27409;DHT22;20413;50.782;7.152;2022-12-10T05:10:50;0.70;99.90
27409;DHT22;20413;50.782;7.152;2022-12-10T05:13:16;0.70;99.90
27409;DHT22;20413;50.782;7.152;2022-12-10T05:15:42;0.60;99.90
27409;DHT22;20413;50.782;7.152;2022-12-10T05:18:07;0.60;99.90
27409;DHT22;20413;50.782;7.152;2022-12-10T05:20:33;0.60;99.90
27409;DHT22;20413;50.782;7.152;2022-12-10T05:22:58;0.60;99.90
27409;DHT22;20413;50.782;7.152;2022-12-10T05:25:42;0.70;99.90
27409;DHT22;20413;50.782;7.152;2022-12-10T05:28:21;0.60;99.90
27409;DHT22;20413;50.782;7.152;2022-12-10T05:30:47;0.60;99.90
27409;DHT22;20413;50.782;7.152;2022-12-10T05:33:14;0.50;99.90
27409;DHT22;20413;50.782;7.152;2022-12-10T05:35:40;0.40;99.90
27409;DHT22;20413;50.782;7.152;2022-12-10T05:38:05;0.50;99.90
27409;DHT22;20413;50.782;7.152;2022-12-10T05:40:35;0.50;99.90
27409;DHT22;20413;50.782;7.152;2022-12-10T05:43:01;0.50;99.90
27409;DHT22;20413;50.782;7.152;2022-12-10T05:45:27;0.50;99.90
27409;DHT22;20413;50.782;7.152;2022-12-10T05:47:52;0.50;99.90
27409;DHT22;20413;50.782;7.152;2022-12-10T05:50:18;0.50;99.90
27409;DHT22;20413;50.782;7.152;2022-12-10T05:52:43;0.40;99.90
27409;DHT22;20413;50.782;7.152;2022-12-10T05:55:09;0.40;99.90
27409;DHT22;20413;50.782;7.152;2022-12-10T05:57:36;0.40;99.90
27409;DHT22;20413;50.782;7.152;2022-12-10T06:00:04;0.40;99.90
27409;DHT22;20413;50.782;7.152;2022-12-10T06:02:32;0.40;99.90
27409;DHT22;20413;50.782;7.152;2022-12-10T06:04:58;0.50;99.90
27409;DHT22;20413;50.782;7.152;2022-12-10T06:07:23;0.40;99.90
27409;DHT22;20413;50.782;7.152;2022-12-10T06:09:49;0.30;99.90
27409;DHT22;20413;50.782;7.152;2022-12-10T06:12:14;0.30;99.90
27409;DHT22;20413;50.782;7.152;2022-12-10T06:14:40;0.30;99.90
27409;DHT22;20413;50.782;7.152;2022-12-10T06:17:06;0.30;99.90
27409;DHT22;20413;50.782;7.152;2022-12-10T06:19:31;0.30;99.90
27409;DHT22;20413;50.782;7.152;2022-12-10T06:21:57;0.30;99.90
27409;DHT22;20413;50.782;7.152;2022-12-10T06:24:24;0.30;99.90
27409;DHT22;20413;50.782;7.152;2022-12-10T06:26:50;0.30;99.90
27409;DHT22;20413;50.782;7.152;2022-12-10T06:29:16;0.30;99.90
27409;DHT22;20413;50.782;7.152;2022-12-10T06:31:42;0.30;99.90
27409;DHT22;20413;50.782;7.152;2022-12-10T06:34:07;0.30;99.90
27409;DHT22;20413;50.782;7.152;2022-12-10T06:36:33;0.30;99.90
27409;DHT22;20413;50.782;7.152;2022-12-10T06:38:58;0.40;99.90
27409;DHT22;20413;50.782;7.152;2022-12-10T06:41:24;0.50;99.90
27409;DHT22;20413;50.782;7.152;2022-12-10T06:43:50;0.40;99.90
27409;DHT22;20413;50.782;7.152;2022-12-10T06:46:17;0.40;99.90
27409;DHT22;20413;50.782;7.152;2022-12-10T06:48:43;0.40;99.90
27409;DHT22;20413;50.782;7.152;2022-12-10T06:51:10;0.40;99.90
27409;DHT22;20413;50.782;7.152;2022-12-10T06:53:37;0.40;99.90
27409;DHT22;20413;50.782;7.152;2022-12-10T06:56:04;0.40;99.90
27409;DHT22;20413;50.782;7.152;2022-12-10T06:58:31;0.40;99.90
27409;DHT22;20413;50.782;7.152;2022-12-10T07:01:09;0.40;99.90
27409;DHT22;20413;50.782;7.152;2022-12-10T07:03:35;0.70;99.90
27409;DHT22;20413;50.782;7.152;2022-12-10T07:06:02;0.60;99.90
27409;DHT22;20413;50.782;7.152;2022-12-10T07:08:28;0.60;99.90
27409;DHT22;20413;50.782;7.152;2022-12-10T07:10:54;0.80;99.90
27409;DHT22;20413;50.782;7.152;2022-12-10T07:13:20;1.00;99.90
27409;DHT22;20413;50.782;7.152;2022-12-10T07:15:46;0.80;99.90
27409;DHT22;20413;50.782;7.152;2022-12-10T07:18:14;0.80;99.90
27409;DHT22;20413;50.782;7.152;2022-12-10T07:20:40;0.80;99.90
27409;DHT22;20413;50.782;7.152;2022-12-10T07:23:06;0.90;99.90
27409;DHT22;20413;50.782;7.152;2022-12-10T07:25:32;0.80;99.90
27409;DHT22;20413;50.782;7.152;2022-12-10T07:27:58;0.70;99.90
27409;DHT22;20413;50.782;7.152;2022-12-10T07:30:24;0.80;99.90
27409;DHT22;20413;50.782;7.152;2022-12-10T07:32:49;0.70;99.90
27409;DHT22;20413;50.782;7.152;2022-12-10T07:35:15;0.60;99.90
27409;DHT22;20413;50.782;7.152;2022-12-10T07:37:41;0.70;99.90
27409;DHT22;20413;50.782;7.152;2022-12-10T07:40:07;0.70;99.90
27409;DHT22;20413;50.782;7.152;2022-12-10T07:42:32;0.70;99.90
27409;DHT22;20413;50.782;7.152;2022-12-10T07:44:58;0.60;99.90
27409;DHT22;20413;50.782;7.152;2022-12-10T07:47:23;0.60;99.90
27409;DHT22;20413;50.782;7.152;2022-12-10T07:49:49;0.70;99.90
27409;DHT22;20413;50.782;7.152;2022-12-10T07:52:15;0.70;99.90
27409;DHT22;20413;50.782;7.152;2022-12-10T07:54:40;0.60;99.90
27409;DHT22;20413;50.782;7.152;2022-12-10T07:57:06;0.60;99.90
27409;DHT22;20413;50.782;7.152;2022-12-10T07:59:31;0.60;99.90
27409;DHT22;20413;50.782;7.152;2022-12-10T08:01:57;0.60;99.90
27409;DHT22;20413;50.782;7.152;2022-12-10T08:04:22;0.60;99.90
27409;DHT22;20413;50.782;7.152;2022-12-10T08:06:48;0.70;99.90
27409;DHT22;20413;50.782;7.152;2022-12-10T08:09:14;0.80;99.90
27409;DHT22;20413;50.782;7.152;2022-12-10T08:11:39;1.00;99.90
27409;DHT22;20413;50.782;7.152;2022-12-10T08:14:05;1.00;99.90
27409;DHT22;20413;50.782;7.152;2022-12-10T08:16:31;0.80;99.90
27409;DHT22;20413;50.782;7.152;2022-12-10T08:18:58;0.80;99.90
27409;DHT22;20413;50.782;7.152;2022-12-10T08:21:26;0.70;99.90
27409;DHT22;20413;50.782;7.152;2022-12-10T08:23:53;0.70;99.90
27409;DHT22;20413;50.782;7.152;2022-12-10T08:26:21;0.60;99.90
27409;DHT22;20413;50.782;7.152;2022-12-10T08:28:48;0.70;99.90
27409;DHT22;20413;50.782;7.152;2022-12-10T08:31:15;0.80;99.90
27409;DHT22;20413;50.782;7.152;2022-12-10T08:33:41;0.90;99.90
27409;DHT22;20413;50.782;7.152;2022-12-10T08:36:09;0.80;99.90
27409;DHT22;20413;50.782;7.152;2022-12-10T08:38:35;0.80;99.90
27409;DHT22;20413;50.782;7.152;2022-12-10T08:41:10;0.90;99.90
27409;DHT22;20413;50.782;7.152;2022-12-10T08:43:36;0.90;99.90
27409;DHT22;20413;50.782;7.152;2022-12-10T08:46:02;0.90;99.90
27409;DHT22;20413;50.782;7.152;2022-12-10T08:48:27;0.80;99.90
27409;DHT22;20413;50.782;7.152;2022-12-10T08:50:53;0.90;99.90
27409;DHT22;20413;50.782;7.152;2022-12-10T08:53:19;1.00;99.90
27409;DHT22;20413;50.782;7.152;2022-12-10T08:55:44;1.10;99.90
27409;DHT22;20413;50.782;7.152;2022-12-10T08:58:10;1.20;99.90
27409;DHT22;20413;50.782;7.152;2022-12-10T09:00:36;1.20;99.90
27409;DHT22;20413;50.782;7.152;2022-12-10T09:03:03;1.20;99.90
27409;DHT22;20413;50.782;7.152;2022-12-10T09:05:28;1.20;99.90
27409;DHT22;20413;50.782;7.152;2022-12-10T09:07:54;1.10;99.90
27409;DHT22;20413;50.782;7.152;2022-12-10T09:10:20;1.20;99.90
27409;DHT22;20413;50.782;7.152;2022-12-10T09:12:47;1.40;99.90
27409;DHT22;20413;50.782;7.152;2022-12-10T09:15:13;1.50;99.90
27409;DHT22;20413;50.782;7.152;2022-12-10T09:17:38;1.60;99.90
27409;DHT22;20413;50.782;7.152;2022-12-10T09:20:05;1.50;99.90
27409;DHT22;20413;50.782;7.152;2022-12-10T09:22:31;1.60;99.90
27409;DHT22;20413;50.782;7.152;2022-12-10T09:24:57;1.60;99.90
27409;DHT22;20413;50.782;7.152;2022-12-10T09:27:22;1.70;99.90
27409;DHT22;20413;50.782;7.152;2022-12-10T09:29:48;1.80;99.90
27409;DHT22;20413;50.782;7.152;2022-12-10T09:32:14;1.90;99.90
27409;DHT22;20413;50.782;7.152;2022-12-10T09:34:39;2.00;99.90
27409;DHT22;20413;50.782;7.152;2022-12-10T09:37:05;2.20;99.90
27409;DHT22;20413;50.782;7.152;2022-12-10T09:39:30;2.10;99.90
27409;DHT22;20413;50.782;7.152;2022-12-10T09:42:16;2.10;99.90
27409;DHT22;20413;50.782;7.152;2022-12-10T09:45:05;2.20;99.90
27409;DHT22;20413;50.782;7.152;2022-12-10T09:50:46;2.00;99.90
27409;DHT22;20413;50.782;7.152;2022-12-10T09:53:14;2.00;99.90
27409;DHT22;20413;50.782;7.152;2022-12-10T09:55:45;2.10;99.90
27409;DHT22;20413;50.782;7.152;2022-12-10T09:58:18;2.10;99.90
27409;DHT22;20413;50.782;7.152;2022-12-10T10:00:47;2.10;99.90
27409;DHT22;20413;50.782;7.152;2022-12-10T10:03:15;2.20;99.90
27409;DHT22;20413;50.782;7.152;2022-12-10T10:05:45;2.30;99.90
27409;DHT22;20413;50.782;7.152;2022-12-10T10:08:20;2.30;99.90
27409;DHT22;20413;50.782;7.152;2022-12-10T10:10:47;2.40;99.90
27409;DHT22;20413;50.782;7.152;2022-12-10T10:13:23;2.50;99.90
27409;DHT22;20413;50.782;7.152;2022-12-10T10:15:51;2.60;99.90
27409;DHT22;20413;50.782;7.152;2022-12-10T10:18:33;2.50;99.90
27409;DHT22;20413;50.782;7.152;2022-12-10T10:21:04;2.60;99.90
27409;DHT22;20413;50.782;7.152;2022-12-10T10:23:30;2.60;99.90
27409;DHT22;20413;50.782;7.152;2022-12-10T10:25:56;2.50;99.90
27409;DHT22;20413;50.782;7.152;2022-12-10T10:28:22;2.50;99.90
27409;DHT22;20413;50.782;7.152;2022-12-10T10:30:50;2.30;99.90
27409;DHT22;20413;50.782;7.152;2022-12-10T10:33:17;2.30;99.90
27409;DHT22;20413;50.782;7.152;2022-12-10T10:35:55;2.30;99.90
27409;DHT22;20413;50.782;7.152;2022-12-10T10:38:31;2.30;99.90
27409;DHT22;20413;50.782;7.152;2022-12-10T10:40:59;2.30;99.90
27409;DHT22;20413;50.782;7.152;2022-12-10T10:43:33;2.40;99.90
27409;DHT22;20413;50.782;7.152;2022-12-10T10:46:11;2.60;99.90
27409;DHT22;20413;50.782;7.152;2022-12-10T10:48:37;2.60;99.90
27409;DHT22;20413;50.782;7.152;2022-12-10T10:56:21;2.50;99.90
27409;DHT22;20413;50.782;7.152;2022-12-10T11:04:10;2.50;99.90
27409;DHT22;20413;50.782;7.152;2022-12-10T11:06:36;2.70;99.90
27409;DHT22;20413;50.782;7.152;2022-12-10T11:09:01;2.60;99.90
27409;DHT22;20413;50.782;7.152;2022-12-10T11:11:39;2.70;99.90
27409;DHT22;20413;50.782;7.152;2022-12-10T11:16:49;2.70;99.90
27409;DHT22;20413;50.782;7.152;2022-12-10T11:19:23;2.70;99.90
27409;DHT22;20413;50.782;7.152;2022-12-10T11:21:51;2.80;99.90
27409;DHT22;20413;50.782;7.152;2022-12-10T11:24:19;2.70;99.90
27409;DHT22;20413;50.782;7.152;2022-12-10T11:26:54;2.80;99.90
27409;DHT22;20413;50.782;7.152;2022-12-10T11:37:34;2.70;99.90
27409;DHT22;20413;50.782;7.152;2022-12-10T11:45:18;2.70;99.90
27409;DHT22;20413;50.782;7.152;2022-12-10T11:50:50;2.80;99.90
27409;DHT22;20413;50.782;7.152;2022-12-10T11:56:18;2.80;99.90
27409;DHT22;20413;50.782;7.152;2022-12-10T11:58:59;2.80;99.90
27409;DHT22;20413;50.782;7.152;2022-12-10T12:04:24;2.90;99.90
27409;DHT22;20413;50.782;7.152;2022-12-10T12:15:03;2.90;99.90
27409;DHT22;20413;50.782;7.152;2022-12-10T12:17:38;2.70;99.90
27409;DHT22;20413;50.782;7.152;2022-12-10T12:22:58;2.80;99.90
27409;DHT22;20413;50.782;7.152;2022-12-10T12:30:23;2.80;99.90
27409;DHT22;20413;50.782;7.152;2022-12-10T12:33:02;2.90;99.90
27409;DHT22;20413;50.782;7.152;2022-12-10T12:38:27;2.90;99.90
27409;DHT22;20413;50.782;7.152;2022-12-10T12:45:59;3.00;99.90
27409;DHT22;20413;50.782;7.152;2022-12-10T12:48:58;3.00;99.90
27409;DHT22;20413;50.782;7.152;2022-12-10T12:51:42;2.90;99.90
27409;DHT22;20413;50.782;7.152;2022-12-10T12:54:11;2.90;99.90
27409;DHT22;20413;50.782;7.152;2022-12-10T12:57:12;3.00;99.90
27409;DHT22;20413;50.782;7.152;2022-12-10T13:02:44;3.10;99.90
27409;DHT22;20413;50.782;7.152;2022-12-10T13:05:29;3.20;99.90
27409;DHT22;20413;50.782;7.152;2022-12-10T13:08:16;2.90;99.90
27409;DHT22;20413;50.782;7.152;2022-12-10T13:11:18;2.90;99.90
27409;DHT22;20413;50.782;7.152;2022-12-10T13:14:09;3.00;99.90
27409;DHT22;20413;50.782;7.152;2022-12-10T13:16:48;3.10;99.90
27409;DHT22;20413;50.782;7.152;2022-12-10T13:27:39;3.20;99.90
27409;DHT22;20413;50.782;7.152;2022-12-10T13:30:27;3.30;99.90
27409;DHT22;20413;50.782;7.152;2022-12-10T13:33:05;3.30;99.90
27409;DHT22;20413;50.782;7.152;2022-12-10T13:35:51;3.40;99.90
27409;DHT22;20413;50.782;7.152;2022-12-10T13:38:26;3.30;99.90
27409;DHT22;20413;50.782;7.152;2022-12-10T13:41:01;3.10;99.90
27409;DHT22;20413;50.782;7.152;2022-12-10T13:43:58;3.00;99.90
27409;DHT22;20413;50.782;7.152;2022-12-10T13:47:21;2.80;99.90
27409;DHT22;20413;50.782;7.152;2022-12-10T13:52:36;2.70;99.90
27409;DHT22;20413;50.782;7.152;2022-12-10T13:55:23;2.70;99.90
27409;DHT22;20413;50.782;7.152;2022-12-10T13:58:09;2.70;99.90
27409;DHT22;20413;50.782;7.152;2022-12-10T14:00:41;2.70;99.90
27409;DHT22;20413;50.782;7.152;2022-12-10T14:06:21;2.50;99.90
27409;DHT22;20413;50.782;7.152;2022-12-10T14:08:55;2.60;99.90
27409;DHT22;20413;50.782;7.152;2022-12-10T14:11:31;2.60;99.90
27409;DHT22;20413;50.782;7.152;2022-12-10T14:14:00;2.60;99.90
27409;DHT22;20413;50.782;7.152;2022-12-10T14:16:31;2.50;99.90
27409;DHT22;20413;50.782;7.152;2022-12-10T14:19:03;2.60;99.90
27409;DHT22;20413;50.782;7.152;2022-12-10T14:21:37;2.50;99.90
27409;DHT22;20413;50.782;7.152;2022-12-10T14:24:04;2.40;99.90
27409;DHT22;20413;50.782;7.152;2022-12-10T14:26:33;2.30;99.90
27409;DHT22;20413;50.782;7.152;2022-12-10T14:29:20;2.30;99.90
27409;DHT22;20413;50.782;7.152;2022-12-10T14:31:50;2.40;99.90
27409;DHT22;20413;50.782;7.152;2022-12-10T14:34:24;2.30;99.90
27409;DHT22;20413;50.782;7.152;2022-12-10T14:36:53;2.40;99.90
27409;DHT22;20413;50.782;7.152;2022-12-10T14:39:25;2.40;99.90
27409;DHT22;20413;50.782;7.152;2022-12-10T14:41:54;2.40;99.90
27409;DHT22;20413;50.782;7.152;2022-12-10T14:44:21;2.40;99.90
27409;DHT22;20413;50.782;7.152;2022-12-10T14:46:48;2.50;99.90
27409;DHT22;20413;50.782;7.152;2022-12-10T14:49:25;2.50;99.90
27409;DHT22;20413;50.782;7.152;2022-12-10T14:51:51;2.50;99.90
27409;DHT22;20413;50.782;7.152;2022-12-10T14:54:33;2.40;99.90
27409;DHT22;20413;50.782;7.152;2022-12-10T14:57:04;2.30;99.90
27409;DHT22;20413;50.782;7.152;2022-12-10T15:04:46;2.30;99.90
27409;DHT22;20413;50.782;7.152;2022-12-10T15:07:22;2.20;99.90
27409;DHT22;20413;50.782;7.152;2022-12-10T15:09:50;2.20;99.90
27409;DHT22;20413;50.782;7.152;2022-12-10T15:12:35;2.30;99.90
27409;DHT22;20413;50.782;7.152;2022-12-10T15:15:10;2.20;99.90
27409;DHT22;20413;50.782;7.152;2022-12-10T15:17:42;2.20;99.90
27409;DHT22;20413;50.782;7.152;2022-12-10T15:20:19;2.10;99.90
27409;DHT22;20413;50.782;7.152;2022-12-10T15:22:45;2.10;99.90
27409;DHT22;20413;50.782;7.152;2022-12-10T15:25:24;2.10;99.90
27409;DHT22;20413;50.782;7.152;2022-12-10T15:28:00;2.10;99.90
27409;DHT22;20413;50.782;7.152;2022-12-10T15:30:44;2.00;99.90
27409;DHT22;20413;50.782;7.152;2022-12-10T15:33:29;1.90;99.90
27409;DHT22;20413;50.782;7.152;2022-12-10T15:35:58;1.90;99.90
27409;DHT22;20413;50.782;7.152;2022-12-10T15:38:24;1.90;99.90
27409;DHT22;20413;50.782;7.152;2022-12-10T15:40:50;1.80;99.90
27409;DHT22;20413;50.782;7.152;2022-12-10T15:45:49;1.80;99.90
27409;DHT22;20413;50.782;7.152;2022-12-10T15:48:15;1.80;99.90
27409;DHT22;20413;50.782;7.152;2022-12-10T15:50:42;1.80;99.90
27409;DHT22;20413;50.782;7.152;2022-12-10T15:53:12;1.80;99.90
27409;DHT22;20413;50.782;7.152;2022-12-10T15:55:38;1.80;99.90
27409;DHT22;20413;50.782;7.152;2022-12-10T15:58:12;1.90;99.90
27409;DHT22;20413;50.782;7.152;2022-12-10T16:00:40;1.90;99.90
27409;DHT22;20413;50.782;7.152;2022-12-10T16:03:11;1.90;99.90
27409;DHT22;20413;50.782;7.152;2022-12-10T16:05:38;1.80;99.90
27409;DHT22;20413;50.782;7.152;2022-12-10T16:10:43;1.70;99.90
27409;DHT22;20413;50.782;7.152;2022-12-10T16:13:18;1.70;99.90
27409;DHT22;20413;50.782;7.152;2022-12-10T16:15:53;1.60;99.90
27409;DHT22;20413;50.782;7.152;2022-12-10T16:18:20;1.70;99.90
27409;DHT22;20413;50.782;7.152;2022-12-10T16:20:46;1.70;99.90
27409;DHT22;20413;50.782;7.152;2022-12-10T16:23:11;1.60;99.90
27409;DHT22;20413;50.782;7.152;2022-12-10T16:25:40;1.60;99.90
27409;DHT22;20413;50.782;7.152;2022-12-10T16:28:11;1.60;99.90
27409;DHT22;20413;50.782;7.152;2022-12-10T16:30:43;1.60;99.90
27409;DHT22;20413;50.782;7.152;2022-12-10T16:33:08;1.70;99.90
27409;DHT22;20413;50.782;7.152;2022-12-10T16:35:34;1.70;99.90
27409;DHT22;20413;50.782;7.152;2022-12-10T16:38:00;1.60;99.90
27409;DHT22;20413;50.782;7.152;2022-12-10T16:40:27;1.60;99.90
27409;DHT22;20413;50.782;7.152;2022-12-10T16:42:54;1.60;99.90
27409;DHT22;20413;50.782;7.152;2022-12-10T16:45:24;1.70;99.90
27409;DHT22;20413;50.782;7.152;2022-12-10T16:47:50;1.70;99.90
27409;DHT22;20413;50.782;7.152;2022-12-10T16:50:17;1.70;99.90
27409;DHT22;20413;50.782;7.152;2022-12-10T16:52:44;1.70;99.90
27409;DHT22;20413;50.782;7.152;2022-12-10T16:55:18;1.60;99.90
27409;DHT22;20413;50.782;7.152;2022-12-10T16:57:45;1.60;99.90
27409;DHT22;20413;50.782;7.152;2022-12-10T17:00:16;1.50;99.90
27409;DHT22;20413;50.782;7.152;2022-12-10T17:02:43;1.40;99.90
27409;DHT22;20413;50.782;7.152;2022-12-10T17:05:29;1.40;99.90
27409;DHT22;20413;50.782;7.152;2022-12-10T17:07:56;1.30;99.90
27409;DHT22;20413;50.782;7.152;2022-12-10T17:10:21;1.30;99.90
27409;DHT22;20413;50.782;7.152;2022-12-10T17:13:10;1.30;99.90
27409;DHT22;20413;50.782;7.152;2022-12-10T17:15:36;1.30;99.90
27409;DHT22;20413;50.782;7.152;2022-12-10T17:18:01;1.30;99.90
27409;DHT22;20413;50.782;7.152;2022-12-10T17:20:28;1.20;99.90
27409;DHT22;20413;50.782;7.152;2022-12-10T17:22:54;1.10;99.90
27409;DHT22;20413;50.782;7.152;2022-12-10T17:25:20;1.10;99.90
27409;DHT22;20413;50.782;7.152;2022-12-10T17:27:46;1.10;99.90
27409;DHT22;20413;50.782;7.152;2022-12-10T17:30:14;1.00;99.90
27409;DHT22;20413;50.782;7.152;2022-12-10T17:32:40;1.00;99.90
27409;DHT22;20413;50.782;7.152;2022-12-10T17:35:06;1.00;99.90
27409;DHT22;20413;50.782;7.152;2022-12-10T17:37:35;1.00;99.90
27409;DHT22;20413;50.782;7.152;2022-12-10T17:40:05;1.00;99.90
27409;DHT22;20413;50.782;7.152;2022-12-10T17:42:35;1.00;99.90
27409;DHT22;20413;50.782;7.152;2022-12-10T17:45:01;1.20;99.90
27409;DHT22;20413;50.782;7.152;2022-12-10T17:47:27;1.20;99.90
27409;DHT22;20413;50.782;7.152;2022-12-10T17:49:53;1.30;99.90
27409;DHT22;20413;50.782;7.152;2022-12-10T17:52:18;1.30;99.90
27409;DHT22;20413;50.782;7.152;2022-12-10T17:54:44;1.40;99.90